createdAt,value
2018-11-20T00:00:25.229Z,100.00
2018-11-20T00:03:03.225Z,100.00
2018-11-20T00:05:55.911Z,100.00
2018-11-20T00:08:51.791Z,100.00
2018-11-20T00:11:38.639Z,100.00
2018-11-20T00:14:40.797Z,100.00
2018-11-20T00:17:30.802Z,100.00
2018-11-20T00:20:17.723Z,100.00
2018-11-20T00:23:04.660Z,100.00
2018-11-20T00:25:54.466Z,100.00
2018-11-20T00:28:41.456Z,100.00
2018-11-20T00:31:37.525Z,100.00
2018-11-20T00:34:27.635Z,100.00
2018-11-20T00:37:12.132Z,100.00
2018-11-20T00:40:11.204Z,100.00
2018-11-20T00:43:07.256Z,100.00
2018-11-20T00:46:03.179Z,100.00
2018-11-20T00:48:47.702Z,100.00
2018-11-20T00:51:33.258Z,100.00
2018-11-20T00:54:22.857Z,100.00
2018-11-20T00:57:24.946Z,100.00
2018-11-20T01:00:06.515Z,100.00
2018-11-20T01:03:05.272Z,100.00
2018-11-20T01:05:52.175Z,100.00
2018-11-20T01:08:54.283Z,100.00
2018-11-20T01:11:41.265Z,100.00
2018-11-20T01:14:34.125Z,100.00
2018-11-20T01:17:20.960Z,100.00
2018-11-20T01:20:06.544Z,100.00
2018-11-20T01:23:05.301Z,100.00
2018-11-20T01:26:04.366Z,100.00
2018-11-20T01:28:44.196Z,100.00
2018-11-20T01:31:29.498Z,100.00
2018-11-20T01:34:15.183Z,100.00
2018-11-20T01:37:02.273Z,100.00
2018-11-20T01:40:07.326Z,100.00
2018-11-20T01:42:53.067Z,100.00
2018-11-20T01:45:55.132Z,100.00
2018-11-20T01:48:54.042Z,100.00
2018-11-20T01:51:39.846Z,100.00
2018-11-20T01:54:20.041Z,100.00
2018-11-20T01:57:06.973Z,100.00
2018-11-20T01:59:53.927Z,100.00
2018-11-20T02:02:53.135Z,100.00
2018-11-20T02:05:38.196Z,100.00
2018-11-20T02:08:23.787Z,100.00
2018-11-20T02:11:09.369Z,100.00
2018-11-20T02:13:59.525Z,100.00
2018-11-20T02:16:47.504Z,100.00
2018-11-20T02:19:37.816Z,100.00
2018-11-20T02:22:17.082Z,100.00
2018-11-20T02:25:13.198Z,100.00
2018-11-20T02:28:02.985Z,100.00
2018-11-20T02:30:44.312Z,100.00
2018-11-20T02:33:28.186Z,100.00
2018-11-20T02:36:15.167Z,100.00
2018-11-20T02:39:04.741Z,100.00
2018-11-20T02:41:57.314Z,100.00
2018-11-20T02:44:46.835Z,100.00
2018-11-20T02:47:33.877Z,100.00
2018-11-20T02:50:13.888Z,100.00
2018-11-20T02:53:06.456Z,100.00
2018-11-20T02:55:53.422Z,100.00
2018-11-20T02:58:48.528Z,100.00
2018-11-20T03:01:32.473Z,100.00
2018-11-20T03:04:22.228Z,100.00
2018-11-20T03:07:11.744Z,100.00
2018-11-20T03:10:13.977Z,100.00
2018-11-20T03:13:19.187Z,100.00
2018-11-20T03:16:05.402Z,100.00
2018-11-20T03:18:42.849Z,100.00
2018-11-20T03:21:22.861Z,100.00
2018-11-20T03:24:22.009Z,100.00
2018-11-20T03:27:14.599Z,100.00
2018-11-20T03:31:03.314Z,100.00
2018-11-20T03:33:56.430Z,100.00
2018-11-20T03:36:41.893Z,100.00
2018-11-20T03:39:27.892Z,100.00
2018-11-20T03:42:20.426Z,100.00
2018-11-20T03:45:19.468Z,100.00
2018-11-20T03:48:05.416Z,100.00
2018-11-20T03:50:50.786Z,100.00
2018-11-20T03:53:37.737Z,100.00
2018-11-20T03:56:23.233Z,100.00
2018-11-20T03:59:18.843Z,100.00
2018-11-20T04:02:17.709Z,100.00
2018-11-20T04:05:04.608Z,100.00
2018-11-20T04:08:03.608Z,100.00
2018-11-20T04:10:53.387Z,100.00
2018-11-20T04:13:37.229Z,100.00
2018-11-20T04:16:30.087Z,100.00
2018-11-20T04:19:16.985Z,100.00
2018-11-20T04:22:01.354Z,100.00
2018-11-20T04:24:47.554Z,100.00
2018-11-20T04:27:33.244Z,100.00
2018-11-20T04:30:59.874Z,100.00
2018-11-20T04:34:12.314Z,100.00
2018-11-20T04:37:13.771Z,100.00
2018-11-20T04:40:09.380Z,100.00
2018-11-20T04:42:56.379Z,100.00
2018-11-20T04:45:41.853Z,100.00
2018-11-20T04:48:34.512Z,100.00
2018-11-20T04:51:39.307Z,100.00
2018-11-20T04:54:24.918Z,100.00
2018-11-20T04:57:11.755Z,100.00
2018-11-20T04:59:58.696Z,100.00
2018-11-20T05:02:44.226Z,100.00
2018-11-20T05:05:29.726Z,100.00
2018-11-20T05:08:25.933Z,100.00
2018-11-20T05:11:11.526Z,100.00
2018-11-20T05:13:57.010Z,100.00
2018-11-20T05:16:46.577Z,100.00
2018-11-20T05:19:33.084Z,100.00
2018-11-20T05:22:22.898Z,100.00
2018-11-20T05:25:18.957Z,100.00
2018-11-20T05:27:58.748Z,100.00
2018-11-20T05:31:03.780Z,100.00
2018-11-20T05:33:49.573Z,100.00
2018-11-20T05:36:35.139Z,100.00
2018-11-20T05:39:40.143Z,100.00
2018-11-20T05:42:16.906Z,100.00
2018-11-20T05:45:02.644Z,100.00
2018-11-20T05:47:48.012Z,100.00
2018-11-20T05:50:34.010Z,100.00
2018-11-20T05:53:28.665Z,100.00
2018-11-20T05:56:12.771Z,100.00
2018-11-20T05:58:59.621Z,100.00
2018-11-20T06:01:55.257Z,100.00
2018-11-20T06:04:32.168Z,100.00
2018-11-20T06:07:25.145Z,100.00
2018-11-20T06:10:17.762Z,100.00
2018-11-20T06:13:10.826Z,100.00
2018-11-20T06:15:56.243Z,100.00
2018-11-20T06:18:41.684Z,100.00
2018-11-20T06:21:33.012Z,100.00
2018-11-20T06:24:28.925Z,100.00
2018-11-20T06:27:14.715Z,100.00
2018-11-20T06:30:05.943Z,100.00
2018-11-20T06:32:44.046Z,100.00
2018-11-20T06:35:42.871Z,100.00
2018-11-20T06:38:33.232Z,100.00
2018-11-20T06:41:22.598Z,100.00
2018-11-20T06:44:07.973Z,100.00
2018-11-20T06:47:01.271Z,100.00
2018-11-20T06:49:57.352Z,100.00
2018-11-20T06:53:03.117Z,100.00
2018-11-20T06:55:56.481Z,100.00
2018-11-20T06:58:52.927Z,100.00
2018-11-20T07:01:49.363Z,100.00
2018-11-20T07:04:45.542Z,100.00
2018-11-20T07:07:32.422Z,100.00
2018-11-20T07:10:18.394Z,100.00
2018-11-20T07:13:05.767Z,100.00
2018-11-20T07:15:56.050Z,100.00
2018-11-20T07:18:41.286Z,100.00
2018-11-20T07:21:43.565Z,100.00
2018-11-20T07:27:44.225Z,100.00
2018-11-20T07:30:34.813Z,100.00
2018-11-20T07:33:28.076Z,100.00
2018-11-20T07:36:13.851Z,100.00
2018-11-20T07:39:15.741Z,100.00
2018-11-20T07:41:52.013Z,100.00
2018-11-20T07:44:44.951Z,100.00
2018-11-20T07:47:34.882Z,100.00
2018-11-20T07:50:20.706Z,100.00
2018-11-20T07:53:05.888Z,100.00
2018-11-20T07:56:05.420Z,100.00
2018-11-20T07:59:02.553Z,100.00
2018-11-20T08:01:52.334Z,100.00
2018-11-20T08:04:39.433Z,100.00
2018-11-20T08:07:41.775Z,100.00
2018-11-20T08:10:23.161Z,100.00
2018-11-20T08:13:12.727Z,100.00
2018-11-20T08:16:06.342Z,100.00
2018-11-20T08:18:52.005Z,100.00
2018-11-20T08:21:37.614Z,100.00
2018-11-20T08:24:31.410Z,100.00
2018-11-20T08:27:18.408Z,100.00
2018-11-20T08:30:04.673Z,100.00
2018-11-20T08:33:03.494Z,100.00
2018-11-20T08:35:59.606Z,100.00
2018-11-20T08:38:58.211Z,100.00
2018-11-20T08:41:37.263Z,100.00
2018-11-20T08:44:36.774Z,100.00
2018-11-20T08:47:22.344Z,100.00
2018-11-20T08:50:12.725Z,100.00
2018-11-20T08:52:59.647Z,100.00
2018-11-20T08:55:49.415Z,99.88
2018-11-20T08:58:51.279Z,99.95
2018-11-20T09:01:38.269Z,99.39
2018-11-20T09:04:23.670Z,98.80
2018-11-20T09:07:10.688Z,98.63
2018-11-20T09:10:16.579Z,99.17
2018-11-20T09:13:02.313Z,100.00
2018-11-20T09:15:52.443Z,99.38
2018-11-20T09:18:39.489Z,100.00
2018-11-20T09:21:44.992Z,100.00
2018-11-20T09:24:41.740Z,99.70
2018-11-20T09:27:27.214Z,99.78
2018-11-20T09:30:12.686Z,99.60
2018-11-20T09:32:50.457Z,99.23
2018-11-20T09:35:50.677Z,98.67
2018-11-20T09:38:46.629Z,98.97
2018-11-20T09:41:32.058Z,99.06
2018-11-20T09:44:32.977Z,97.66
2018-11-20T09:47:18.664Z,98.27
2018-11-20T09:50:11.288Z,97.12
2018-11-20T09:52:57.179Z,98.59
2018-11-20T09:55:52.773Z,99.02
2018-11-20T09:58:45.977Z,98.44
2018-11-20T10:01:32.981Z,100.00
2018-11-20T10:04:18.804Z,98.67
2018-11-20T10:07:23.904Z,99.02
2018-11-20T10:10:11.070Z,100.00
2018-11-20T10:12:54.531Z,100.00
2018-11-20T10:15:40.250Z,100.00
2018-11-20T10:18:36.578Z,100.00
2018-11-20T10:21:22.137Z,100.00
2018-11-20T10:24:19.201Z,100.00
2018-11-20T10:27:06.215Z,100.00
2018-11-20T10:29:51.907Z,100.00
2018-11-20T10:32:37.935Z,100.00
2018-11-20T10:35:25.167Z,100.00
2018-11-20T10:38:03.150Z,100.00
2018-11-20T10:40:49.329Z,100.00
2018-11-20T10:43:35.579Z,100.00
2018-11-20T10:46:21.745Z,99.91
2018-11-20T10:49:07.416Z,100.00
2018-11-20T10:51:53.378Z,100.00
2018-11-20T10:54:55.833Z,100.00
2018-11-20T10:57:41.869Z,100.00
2018-11-20T11:00:17.412Z,100.00
2018-11-20T11:03:02.883Z,100.00
2018-11-20T11:05:49.386Z,100.00
2018-11-20T11:08:34.716Z,100.00
2018-11-20T11:11:20.068Z,100.00
2018-11-20T11:14:05.310Z,100.00
2018-11-20T11:16:55.405Z,100.00
2018-11-20T11:19:38.864Z,100.00
2018-11-20T11:22:17.945Z,100.00
2018-11-20T11:25:23.539Z,100.00
2018-11-20T11:28:09.080Z,100.00
2018-11-20T11:30:48.811Z,100.00
2018-11-20T11:33:38.352Z,100.00
2018-11-20T11:36:25.032Z,100.00
2018-11-20T11:39:21.430Z,100.00
2018-11-20T11:42:11.961Z,100.00
2018-11-20T11:45:00.416Z,100.00
2018-11-20T11:47:46.589Z,100.00
2018-11-20T11:50:32.796Z,100.00
2018-11-20T11:53:31.892Z,100.00
2018-11-20T11:56:17.555Z,100.00
2018-11-20T11:59:03.254Z,100.00
2018-11-20T12:04:57.382Z,100.00
2018-11-20T12:07:47.201Z,100.00
2018-11-20T12:10:30.788Z,100.00
2018-11-20T12:13:23.439Z,100.00
2018-11-20T12:16:10.935Z,100.00
2018-11-20T12:18:58.518Z,100.00
2018-11-20T12:21:45.481Z,100.00
2018-11-20T12:24:45.622Z,100.00
2018-11-20T12:27:30.272Z,100.00
2018-11-20T12:30:15.859Z,100.00
2018-11-20T12:33:02.169Z,100.00
2018-11-20T12:35:47.756Z,100.00
2018-11-20T12:38:37.438Z,100.00
2018-11-20T12:41:18.452Z,100.00
2018-11-20T12:44:11.459Z,100.00
2018-11-20T12:47:09.334Z,100.00
2018-11-20T12:49:54.832Z,100.00
2018-11-20T12:52:45.323Z,100.00
2018-11-20T12:55:36.116Z,100.00
2018-11-20T12:58:28.763Z,100.00
2018-11-20T13:01:24.928Z,100.00
2018-11-20T13:04:14.755Z,100.00
2018-11-20T13:07:17.163Z,100.00
2018-11-20T13:10:16.553Z,100.00
2018-11-20T13:13:09.111Z,100.00
2018-11-20T13:15:56.350Z,100.00
2018-11-20T13:18:54.473Z,100.00
2018-11-20T13:21:44.738Z,100.00
2018-11-20T13:24:32.345Z,100.00
2018-11-20T13:27:18.204Z,100.00
2018-11-20T13:30:04.405Z,100.00
2018-11-20T13:32:49.889Z,100.00
2018-11-20T13:35:39.448Z,100.00
2018-11-20T13:38:33.349Z,100.00
2018-11-20T13:42:05.889Z,100.00
2018-11-20T13:44:52.477Z,100.00
2018-11-20T13:47:38.824Z,100.00
2018-11-20T13:50:29.226Z,100.00
2018-11-20T13:53:25.350Z,100.00
2018-11-20T13:56:18.197Z,100.00
2018-11-20T13:59:08.306Z,100.00
2018-11-20T14:01:54.033Z,100.00
2018-11-20T14:04:39.762Z,100.00
2018-11-20T14:07:41.843Z,100.00
2018-11-20T14:10:29.049Z,100.00
2018-11-20T14:13:14.943Z,100.00
2018-11-20T14:16:00.724Z,100.00
2018-11-20T14:18:51.027Z,100.00
2018-11-20T14:21:40.831Z,100.00
2018-11-20T14:24:27.936Z,100.00
2018-11-20T14:27:30.241Z,100.00
2018-11-20T14:30:29.496Z,100.00
2018-11-20T14:33:03.731Z,100.00
2018-11-20T14:35:54.146Z,100.00
2018-11-20T14:38:59.728Z,100.00
2018-11-20T14:41:49.636Z,100.00
2018-11-20T14:44:25.096Z,100.00
2018-11-20T14:47:22.385Z,100.00
2018-11-20T14:50:08.175Z,100.00
2018-11-20T14:52:54.346Z,100.00
2018-11-20T14:55:53.919Z,100.00
2018-11-20T14:58:27.762Z,100.00
2018-11-20T15:01:15.403Z,100.00
2018-11-20T15:04:14.505Z,100.00
2018-11-20T15:07:19.907Z,100.00
2018-11-20T15:10:05.909Z,100.00
2018-11-20T15:12:52.918Z,100.00
2018-11-20T15:15:40.762Z,100.00
2018-11-20T15:18:46.208Z,100.00
2018-11-20T15:21:32.224Z,100.00
2018-11-20T15:24:17.797Z,100.00
2018-11-20T15:26:58.295Z,100.00
2018-11-20T15:29:44.460Z,100.00
2018-11-20T15:32:49.824Z,100.00
2018-11-20T15:35:37.644Z,100.00
2018-11-20T15:38:31.303Z,100.00
2018-11-20T15:41:21.385Z,100.00
2018-11-20T15:44:08.338Z,100.00
2018-11-20T15:47:07.390Z,100.00
2018-11-20T15:49:53.232Z,100.00
2018-11-20T15:52:40.146Z,100.00
2018-11-20T15:55:30.039Z,100.00
2018-11-20T15:58:15.880Z,100.00
2018-11-20T16:01:01.250Z,100.00
2018-11-20T16:03:54.520Z,100.00
2018-11-20T16:07:01.797Z,100.00
2018-11-20T16:09:53.127Z,100.00
2018-11-20T16:12:40.138Z,100.00
2018-11-20T16:15:25.725Z,100.00
2018-11-20T16:18:18.774Z,100.00
2018-11-20T16:21:05.890Z,100.00
2018-11-20T16:24:01.521Z,100.00
2018-11-20T16:26:47.899Z,100.00
2018-11-20T16:29:37.457Z,100.00
2018-11-20T16:32:23.168Z,100.00
2018-11-20T16:35:25.389Z,100.00
2018-11-20T16:38:11.205Z,100.00
2018-11-20T16:40:56.890Z,100.00
2018-11-20T16:43:43.604Z,100.00
2018-11-20T16:46:35.469Z,100.00
2018-11-20T16:49:34.006Z,100.00
2018-11-20T16:52:35.980Z,100.00
2018-11-20T16:55:28.785Z,100.00
2018-11-20T16:58:14.585Z,100.00
2018-11-20T17:00:53.067Z,100.00
2018-11-20T17:03:55.195Z,100.00
2018-11-20T17:06:55.602Z,100.00
2018-11-20T17:09:45.504Z,100.00
2018-11-20T17:12:35.150Z,100.00
2018-11-20T17:15:21.622Z,100.00
2018-11-20T17:18:08.681Z,100.00
2018-11-20T17:21:02.093Z,100.00
2018-11-20T17:23:57.539Z,100.00
2018-11-20T17:27:00.053Z,100.00
2018-11-20T17:29:38.279Z,100.00
2018-11-20T17:32:33.661Z,100.00
2018-11-20T17:35:32.845Z,100.00
2018-11-20T17:38:18.550Z,100.00
2018-11-20T17:41:05.677Z,100.00
2018-11-20T17:44:04.767Z,100.00
2018-11-20T17:47:10.213Z,100.00
2018-11-20T17:49:57.678Z,100.00
2018-11-20T17:52:39.290Z,100.00
2018-11-20T17:55:31.151Z,100.00
2018-11-20T17:58:36.363Z,100.00
2018-11-20T18:01:35.595Z,100.00
2018-11-20T18:04:22.586Z,100.00
2018-11-20T18:07:08.159Z,100.00
2018-11-20T18:10:07.504Z,100.00
2018-11-20T18:12:57.741Z,100.00
2018-11-20T18:15:43.585Z,100.00
2018-11-20T18:18:29.497Z,100.00
2018-11-20T18:21:15.560Z,100.00
2018-11-20T18:24:14.720Z,100.00
2018-11-20T18:27:20.163Z,100.00
2018-11-20T18:30:06.165Z,100.00
2018-11-20T18:32:59.444Z,100.00
2018-11-20T18:36:01.491Z,100.00
2018-11-20T18:38:51.429Z,100.00
2018-11-20T18:41:53.790Z,100.00
2018-11-20T18:44:39.532Z,100.00
2018-11-20T18:47:27.055Z,100.00
2018-11-20T18:50:20.379Z,100.00
2018-11-20T18:53:07.774Z,100.00
2018-11-20T18:55:46.874Z,100.00
2018-11-20T18:58:34.221Z,100.00
2018-11-20T19:01:20.020Z,100.00
2018-11-20T19:04:07.706Z,100.00
2018-11-20T19:07:09.956Z,100.00
2018-11-20T19:09:55.806Z,100.00
2018-11-20T19:12:41.610Z,100.00
2018-11-20T19:15:27.479Z,100.00
2018-11-20T19:18:20.843Z,100.00
2018-11-20T19:21:14.498Z,100.00
2018-11-20T19:24:08.798Z,100.00
2018-11-20T19:26:54.705Z,100.00
2018-11-20T19:29:40.967Z,100.00
2018-11-20T19:32:27.690Z,100.00
2018-11-20T19:35:06.436Z,100.00
2018-11-20T19:38:09.113Z,100.00
2018-11-20T19:40:59.180Z,100.00
2018-11-20T19:43:52.707Z,100.00
2018-11-20T19:46:38.813Z,100.00
2018-11-20T19:49:26.420Z,100.00
2018-11-20T19:52:13.586Z,100.00
2018-11-20T19:54:59.285Z,100.00
2018-11-20T19:58:04.858Z,100.00
2018-11-20T20:00:54.610Z,100.00
2018-11-20T20:03:41.822Z,100.00
2018-11-20T20:06:27.652Z,100.00
2018-11-20T20:09:18.075Z,100.00
2018-11-20T20:12:20.269Z,100.00
2018-11-20T20:15:22.354Z,100.00
2018-11-20T20:18:13.636Z,100.00
2018-11-20T20:21:09.903Z,100.00
2018-11-20T20:23:54.517Z,100.00
2018-11-20T20:26:39.284Z,100.00
2018-11-20T20:29:41.502Z,100.00
2018-11-20T20:32:31.490Z,100.00
2018-11-20T20:35:13.444Z,100.00
2018-11-20T20:38:03.365Z,100.00
2018-11-20T20:41:08.701Z,100.00
2018-11-20T20:44:13.999Z,100.00
2018-11-20T20:47:19.517Z,100.00
2018-11-20T20:50:03.813Z,100.00
2018-11-20T20:52:53.979Z,100.00
2018-11-20T20:55:39.827Z,100.00
2018-11-20T20:58:34.151Z,100.00
2018-11-20T21:01:33.194Z,100.00
2018-11-20T21:04:23.211Z,100.00
2018-11-20T21:07:02.132Z,100.00
2018-11-20T21:09:47.933Z,100.00
2018-11-20T21:12:40.585Z,100.00
2018-11-20T21:15:29.572Z,100.00
2018-11-20T21:18:12.152Z,100.00
2018-11-20T21:20:58.347Z,100.00
2018-11-20T21:23:51.091Z,100.00
2018-11-20T21:26:37.022Z,100.00
2018-11-20T21:29:17.944Z,100.00
2018-11-20T21:32:08.029Z,100.00
2018-11-20T21:34:55.385Z,100.00
2018-11-20T21:37:42.162Z,100.00
2018-11-20T21:40:48.303Z,100.00
2018-11-20T21:43:53.355Z,100.00
2018-11-20T21:46:43.657Z,100.00
2018-11-20T21:49:33.342Z,100.00
2018-11-20T21:52:22.895Z,100.00
2018-11-20T21:55:22.163Z,100.00
2018-11-20T21:58:14.865Z,100.00
2018-11-20T22:01:03.629Z,100.00
2018-11-20T22:03:49.099Z,100.00
2018-11-20T22:06:41.996Z,100.00
2018-11-20T22:09:35.520Z,100.00
2018-11-20T22:12:21.184Z,100.00
2018-11-20T22:15:16.788Z,100.00
2018-11-20T22:18:02.515Z,100.00
2018-11-20T22:20:54.757Z,100.00
2018-11-20T22:23:50.767Z,100.00
2018-11-20T22:26:41.168Z,100.00
2018-11-20T22:29:34.142Z,100.00
2018-11-20T22:32:39.168Z,100.00
2018-11-20T22:35:28.540Z,100.00
2018-11-20T22:38:15.465Z,100.00
2018-11-20T22:41:05.214Z,100.00
2018-11-20T22:43:57.985Z,100.00
2018-11-20T22:46:54.164Z,100.00
2018-11-20T22:49:39.979Z,100.00
2018-11-20T22:52:17.196Z,100.00
2018-11-20T22:55:05.096Z,100.00
2018-11-20T22:57:42.072Z,100.00
2018-11-20T23:00:30.959Z,100.00
2018-11-20T23:03:21.461Z,100.00
2018-11-20T23:06:05.901Z,100.00
2018-11-20T23:08:33.428Z,100.00
2018-11-20T23:11:01.149Z,100.00
2018-11-20T23:13:28.813Z,100.00
2018-11-20T23:15:56.255Z,100.00
2018-11-20T23:18:23.822Z,100.00
2018-11-20T23:20:51.348Z,100.00
2018-11-20T23:23:19.039Z,100.00
2018-11-20T23:25:46.519Z,100.00
2018-11-20T23:28:14.123Z,100.00
2018-11-20T23:30:41.713Z,100.00
2018-11-20T23:33:09.214Z,100.00
2018-11-20T23:35:36.599Z,100.00
2018-11-20T23:38:04.203Z,100.00
2018-11-20T23:40:31.798Z,100.00
2018-11-20T23:42:59.407Z,100.00
2018-11-20T23:45:26.900Z,100.00
2018-11-20T23:47:54.538Z,100.00
2018-11-20T23:50:22.115Z,100.00
2018-11-20T23:52:49.584Z,100.00
2018-11-20T23:55:17.421Z,100.00
2018-11-20T23:57:44.982Z,100.00
